createdAt,value
2022-11-27T00:01:25.515Z,15.00
2022-11-27T00:03:53.172Z,9.02
2022-11-27T00:06:22.774Z,13.52
2022-11-27T00:08:49.600Z,9.90
2022-11-27T00:11:21.603Z,8.18
2022-11-27T00:13:49.694Z,8.80
2022-11-27T00:16:16.922Z,7.82
2022-11-27T00:18:43.949Z,6.55
2022-11-27T00:21:13.813Z,7.05
2022-11-27T00:23:43.375Z,6.22
2022-11-27T00:26:14.943Z,6.60
2022-11-27T00:28:41.497Z,6.53
2022-11-27T00:31:17.639Z,6.07
2022-11-27T00:33:45.178Z,5.95
2022-11-27T00:36:12.656Z,6.35
2022-11-27T00:38:39.498Z,5.93
2022-11-27T00:41:15.894Z,5.47
2022-11-27T00:43:44.917Z,5.90
2022-11-27T00:46:16.256Z,5.82
2022-11-27T00:48:43.492Z,6.00
2022-11-27T00:51:12.680Z,5.72
2022-11-27T00:53:39.429Z,5.75
2022-11-27T00:56:06.014Z,5.50
2022-11-27T00:58:32.436Z,5.80
2022-11-27T01:01:01.508Z,6.22
2022-11-27T01:03:29.995Z,5.32
2022-11-27T01:05:56.711Z,5.60
2022-11-27T01:08:25.323Z,5.43
2022-11-27T01:10:55.143Z,5.82
2022-11-27T01:13:27.331Z,5.30
2022-11-27T01:16:08.151Z,5.60
2022-11-27T01:18:39.267Z,6.03
2022-11-27T01:21:06.306Z,5.50
2022-11-27T01:23:32.841Z,5.43
2022-11-27T01:26:07.012Z,5.20
2022-11-27T01:28:34.672Z,5.40
2022-11-27T01:31:13.495Z,5.60
2022-11-27T01:33:39.990Z,5.60
2022-11-27T01:36:08.515Z,5.10
2022-11-27T01:38:35.066Z,5.25
2022-11-27T01:41:07.828Z,5.43
2022-11-27T01:43:52.869Z,5.55
2022-11-27T01:46:37.099Z,5.68
2022-11-27T01:49:09.333Z,5.72
2022-11-27T01:51:41.120Z,5.50
2022-11-27T01:54:09.900Z,5.70
2022-11-27T01:56:36.976Z,5.90
2022-11-27T01:59:04.052Z,5.22
2022-11-27T02:01:30.691Z,5.35
2022-11-27T02:03:59.498Z,5.60
2022-11-27T02:06:26.240Z,5.70
2022-11-27T02:08:53.336Z,6.07
2022-11-27T02:11:33.641Z,5.57
2022-11-27T02:14:24.165Z,5.90
2022-11-27T02:17:10.735Z,5.93
2022-11-27T02:20:07.375Z,5.82
2022-11-27T02:22:51.949Z,5.55
2022-11-27T02:25:52.837Z,5.57
2022-11-27T02:28:37.403Z,5.80
2022-11-27T02:31:13.004Z,5.55
2022-11-27T02:33:45.158Z,5.53
2022-11-27T02:36:18.865Z,6.30
2022-11-27T02:38:53.108Z,6.22
2022-11-27T02:41:24.755Z,5.60
2022-11-27T02:43:52.945Z,5.70
2022-11-27T02:46:20.689Z,6.00
2022-11-27T02:48:54.733Z,6.10
2022-11-27T02:51:58.970Z,6.20
2022-11-27T02:54:29.058Z,6.45
2022-11-27T02:56:58.223Z,6.28
2022-11-27T02:59:29.419Z,6.35
2022-11-27T03:02:00.651Z,7.10
2022-11-27T03:04:34.388Z,6.60
2022-11-27T03:07:06.932Z,6.65
2022-11-27T03:09:38.747Z,6.57
2022-11-27T03:12:06.999Z,6.25
2022-11-27T03:14:36.029Z,6.90
2022-11-27T03:17:52.464Z,7.22
2022-11-27T03:20:30.426Z,5.93
2022-11-27T03:22:57.227Z,6.63
2022-11-27T03:25:24.508Z,6.32
2022-11-27T03:28:02.481Z,6.32
2022-11-27T03:30:28.920Z,6.68
2022-11-27T03:32:55.897Z,6.60
2022-11-27T03:35:26.294Z,7.03
2022-11-27T03:37:52.996Z,6.88
2022-11-27T03:40:20.325Z,7.18
2022-11-27T03:43:03.731Z,6.70
2022-11-27T03:45:48.419Z,6.18
2022-11-27T03:48:17.488Z,7.63
2022-11-27T03:50:58.916Z,6.70
2022-11-27T03:53:56.211Z,7.30
2022-11-27T03:56:43.894Z,6.93
2022-11-27T03:59:17.097Z,7.00
2022-11-27T04:01:43.575Z,7.22
2022-11-27T04:04:10.140Z,6.32
2022-11-27T04:06:36.606Z,7.07
2022-11-27T04:09:03.984Z,6.85
2022-11-27T04:11:30.454Z,6.65
2022-11-27T04:13:56.839Z,7.18
2022-11-27T04:16:23.262Z,7.28
2022-11-27T04:18:49.729Z,6.95
2022-11-27T04:21:17.021Z,7.20
2022-11-27T04:23:43.995Z,7.47
2022-11-27T04:26:10.862Z,7.13
2022-11-27T04:28:37.296Z,6.80
2022-11-27T04:31:03.967Z,6.70
2022-11-27T04:33:30.494Z,6.63
2022-11-27T04:35:56.852Z,7.07
2022-11-27T04:38:23.283Z,7.03
2022-11-27T04:40:51.789Z,7.30
2022-11-27T04:43:18.168Z,7.22
2022-11-27T04:45:44.688Z,6.70
2022-11-27T04:48:11.142Z,6.97
2022-11-27T04:50:37.567Z,7.20
2022-11-27T04:53:04.104Z,6.63
2022-11-27T04:55:30.493Z,7.28
2022-11-27T04:57:56.872Z,6.78
2022-11-27T05:00:23.329Z,6.45
2022-11-27T05:02:49.768Z,6.72
2022-11-27T05:05:17.202Z,6.40
2022-11-27T05:07:43.686Z,6.90
2022-11-27T05:10:10.516Z,6.25
2022-11-27T05:12:36.897Z,7.15
2022-11-27T05:15:04.807Z,6.40
2022-11-27T05:17:31.708Z,7.05
2022-11-27T05:19:58.067Z,6.75
2022-11-27T05:22:24.425Z,7.10
2022-11-27T05:24:50.775Z,7.25
2022-11-27T05:27:17.151Z,6.93
2022-11-27T05:29:43.783Z,7.13
2022-11-27T05:32:10.153Z,7.35
2022-11-27T05:34:36.526Z,6.47
2022-11-27T05:37:02.991Z,6.97
2022-11-27T05:39:29.332Z,6.80
2022-11-27T05:41:55.712Z,6.95
2022-11-27T05:44:22.060Z,6.70
2022-11-27T05:46:48.475Z,6.47
2022-11-27T05:49:16.474Z,6.57
2022-11-27T05:51:50.424Z,7.15
2022-11-27T05:54:17.367Z,6.88
2022-11-27T05:56:43.720Z,7.47
2022-11-27T05:59:10.795Z,6.88
2022-11-27T06:01:37.209Z,6.60
2022-11-27T06:04:03.673Z,6.55
2022-11-27T06:06:30.699Z,6.50
2022-11-27T06:08:57.055Z,6.45
2022-11-27T06:11:23.866Z,6.43
2022-11-27T06:13:50.959Z,6.00
2022-11-27T06:16:19.972Z,6.68
2022-11-27T06:18:50.036Z,6.80
2022-11-27T06:21:16.990Z,5.53
2022-11-27T06:23:44.435Z,6.43
2022-11-27T06:26:11.423Z,6.28
2022-11-27T06:28:37.823Z,5.75
2022-11-27T06:31:17.468Z,6.65
2022-11-27T06:33:44.407Z,6.50
2022-11-27T06:36:10.752Z,6.07
2022-11-27T06:38:38.346Z,6.10
2022-11-27T06:41:06.749Z,6.00
2022-11-27T06:43:34.480Z,5.13
2022-11-27T06:46:02.176Z,5.05
2022-11-27T06:48:29.278Z,5.18
2022-11-27T06:50:59.287Z,5.25
2022-11-27T06:53:25.644Z,5.22
2022-11-27T06:55:52.001Z,4.53
2022-11-27T06:58:18.349Z,5.45
2022-11-27T07:00:44.757Z,6.10
2022-11-27T07:03:11.177Z,5.80
2022-11-27T07:05:37.652Z,5.20
2022-11-27T07:08:04.804Z,5.10
2022-11-27T07:10:34.982Z,5.03
2022-11-27T07:13:01.823Z,4.55
2022-11-27T07:15:28.540Z,4.75
2022-11-27T07:17:54.885Z,4.53
2022-11-27T07:20:21.271Z,4.60
2022-11-27T07:22:47.633Z,4.75
2022-11-27T07:25:14.004Z,4.25
2022-11-27T07:27:40.461Z,4.18
2022-11-27T07:30:07.667Z,4.47
2022-11-27T07:32:34.091Z,4.43
2022-11-27T07:35:00.479Z,4.35
2022-11-27T07:37:29.944Z,4.20
2022-11-27T07:40:02.682Z,4.32
2022-11-27T07:42:38.011Z,4.85
2022-11-27T07:45:05.711Z,4.35
2022-11-27T07:47:32.107Z,4.13
2022-11-27T07:50:00.248Z,4.25
2022-11-27T07:52:27.067Z,5.20
2022-11-27T07:54:53.613Z,16.33
2022-11-27T07:57:20.144Z,19.73
2022-11-27T07:59:47.680Z,6.53
2022-11-27T08:02:14.563Z,4.65
2022-11-27T08:04:41.220Z,5.13
2022-11-27T08:07:07.800Z,5.10
2022-11-27T08:09:34.220Z,4.70
2022-11-27T08:12:00.655Z,5.22
2022-11-27T08:14:27.236Z,5.45
2022-11-27T08:16:53.697Z,5.95
2022-11-27T08:19:20.103Z,9.15
2022-11-27T08:21:46.751Z,7.72
2022-11-27T08:24:13.168Z,11.35
2022-11-27T08:26:39.953Z,7.05
2022-11-27T08:29:06.671Z,6.20
2022-11-27T08:31:33.956Z,6.25
2022-11-27T08:34:00.490Z,6.82
2022-11-27T08:36:27.237Z,7.05
2022-11-27T08:38:55.144Z,7.05
2022-11-27T08:41:21.752Z,7.30
2022-11-27T08:43:48.159Z,7.53
2022-11-27T08:46:14.570Z,7.50
2022-11-27T08:48:41.893Z,9.13
2022-11-27T08:51:14.710Z,8.30
2022-11-27T08:53:44.054Z,9.90
2022-11-27T08:56:15.489Z,20.63
2022-11-27T08:58:41.939Z,22.65
2022-11-27T09:01:14.180Z,10.05
2022-11-27T09:03:40.642Z,9.20
2022-11-27T09:06:12.965Z,9.40
2022-11-27T09:08:40.880Z,8.73
2022-11-27T09:11:07.901Z,10.27
2022-11-27T09:13:36.943Z,10.05
2022-11-27T09:16:04.532Z,10.27
2022-11-27T09:18:31.281Z,9.85
2022-11-27T09:21:07.206Z,10.60
2022-11-27T09:23:34.040Z,10.15
2022-11-27T09:26:02.591Z,10.57
2022-11-27T09:28:31.654Z,10.57
2022-11-27T09:31:00.580Z,10.82
2022-11-27T09:33:28.849Z,10.88
2022-11-27T09:35:55.600Z,10.65
2022-11-27T09:38:23.589Z,9.90
2022-11-27T09:41:03.140Z,10.15
2022-11-27T09:43:34.172Z,14.25
2022-11-27T09:46:09.010Z,15.20
2022-11-27T09:48:39.871Z,12.32
2022-11-27T09:51:13.935Z,12.32
2022-11-27T09:53:49.642Z,12.73
2022-11-27T09:56:17.917Z,11.73
2022-11-27T09:58:55.994Z,14.93
2022-11-27T10:01:41.917Z,12.23
2022-11-27T10:04:14.013Z,12.23
2022-11-27T10:06:55.142Z,11.68
2022-11-27T10:09:50.324Z,11.77
2022-11-27T10:12:25.680Z,11.77
2022-11-27T10:15:01.053Z,11.93
2022-11-27T10:17:31.570Z,11.75
2022-11-27T10:20:13.553Z,16.77
2022-11-27T10:22:44.816Z,14.43
2022-11-27T10:25:21.741Z,12.35
2022-11-27T10:28:10.158Z,11.45
2022-11-27T10:30:58.930Z,11.13
2022-11-27T10:33:31.785Z,11.05
2022-11-27T10:35:59.764Z,10.63
2022-11-27T10:38:28.533Z,10.50
2022-11-27T10:41:49.736Z,10.88
2022-11-27T10:44:23.654Z,11.30
2022-11-27T10:46:54.415Z,10.02
2022-11-27T10:49:20.904Z,10.43
2022-11-27T10:51:47.281Z,10.68
2022-11-27T10:54:23.455Z,9.68
2022-11-27T10:57:00.604Z,10.20
2022-11-27T10:59:34.638Z,10.27
2022-11-27T11:02:03.258Z,8.50
2022-11-27T11:04:39.239Z,9.45
2022-11-27T11:09:50.061Z,8.43
2022-11-27T11:12:21.026Z,8.68
2022-11-27T11:15:11.362Z,8.15
2022-11-27T11:17:38.288Z,7.63
2022-11-27T11:20:24.409Z,7.43
2022-11-27T11:22:51.464Z,6.22
2022-11-27T11:25:21.074Z,6.70
2022-11-27T11:27:50.136Z,6.25
2022-11-27T11:30:26.377Z,6.03
2022-11-27T11:33:01.590Z,6.20
2022-11-27T11:35:37.026Z,6.20
2022-11-27T11:38:06.067Z,6.47
2022-11-27T11:40:37.390Z,6.60
2022-11-27T11:43:25.155Z,6.22
2022-11-27T11:45:51.526Z,5.55
2022-11-27T11:48:25.113Z,6.10
2022-11-27T11:50:55.508Z,6.18
2022-11-27T11:53:22.291Z,6.10
2022-11-27T11:56:16.584Z,5.68
2022-11-27T11:58:57.891Z,5.60
2022-11-27T12:01:54.134Z,5.40
2022-11-27T12:04:23.369Z,5.95
2022-11-27T12:07:01.893Z,5.75
2022-11-27T12:09:49.423Z,5.40
2022-11-27T12:12:21.390Z,6.35
2022-11-27T12:15:04.007Z,7.43
2022-11-27T12:17:35.871Z,6.15
2022-11-27T12:20:05.235Z,7.30
2022-11-27T12:22:46.837Z,6.35
2022-11-27T12:25:30.279Z,5.93
2022-11-27T12:28:06.102Z,5.55
2022-11-27T12:33:26.881Z,4.82
2022-11-27T12:36:41.446Z,4.95
2022-11-27T12:39:16.141Z,5.18
2022-11-27T12:42:01.050Z,5.28
2022-11-27T12:45:03.827Z,4.80
2022-11-27T12:47:46.751Z,4.68
2022-11-27T12:50:43.657Z,4.68
2022-11-27T12:53:20.171Z,4.65
2022-11-27T12:56:16.762Z,4.68
2022-11-27T12:58:47.666Z,4.85
2022-11-27T13:01:25.053Z,5.30
2022-11-27T13:04:29.907Z,4.72
2022-11-27T13:07:28.930Z,4.88
2022-11-27T13:09:58.099Z,4.60
2022-11-27T13:12:30.614Z,5.00
2022-11-27T13:15:08.566Z,5.03
2022-11-27T13:17:42.470Z,4.60
2022-11-27T13:20:20.041Z,5.50
2022-11-27T13:22:48.186Z,5.28
2022-11-27T13:25:15.117Z,4.50
2022-11-27T13:27:46.564Z,4.75
2022-11-27T13:30:22.621Z,4.63
2022-11-27T13:32:53.892Z,4.30
2022-11-27T13:35:36.604Z,5.35
2022-11-27T13:38:19.088Z,4.28
2022-11-27T13:40:48.694Z,4.78
2022-11-27T13:43:41.197Z,4.32
2022-11-27T13:46:16.084Z,4.45
2022-11-27T13:48:49.038Z,4.18
2022-11-27T13:51:25.425Z,3.75
2022-11-27T13:53:51.839Z,4.20
2022-11-27T13:56:30.129Z,4.18
2022-11-27T13:58:56.659Z,3.72
2022-11-27T14:01:25.037Z,4.22
2022-11-27T14:03:52.177Z,4.30
2022-11-27T14:06:23.739Z,4.18
2022-11-27T14:08:54.710Z,4.32
2022-11-27T14:11:42.812Z,4.20
2022-11-27T14:14:21.170Z,4.20
2022-11-27T14:17:00.123Z,4.13
2022-11-27T14:19:34.013Z,35.20
2022-11-27T14:22:02.105Z,8.45
2022-11-27T14:24:43.807Z,4.00
2022-11-27T14:27:20.352Z,4.25
2022-11-27T14:29:47.566Z,3.97
2022-11-27T14:32:15.861Z,4.13
2022-11-27T14:34:43.121Z,4.43
2022-11-27T14:37:27.560Z,4.45
2022-11-27T14:39:54.736Z,4.50
2022-11-27T14:42:35.199Z,5.55
2022-11-27T14:45:12.367Z,4.60
2022-11-27T14:47:45.258Z,4.38
2022-11-27T14:50:14.265Z,4.28
2022-11-27T14:52:43.788Z,4.78
2022-11-27T14:55:16.164Z,4.68
2022-11-27T14:57:44.139Z,4.70
2022-11-27T15:00:20.559Z,7.50
2022-11-27T15:02:49.818Z,6.90
2022-11-27T15:05:28.669Z,4.70
2022-11-27T15:07:57.970Z,4.75
2022-11-27T15:10:32.444Z,4.70
2022-11-27T15:13:01.115Z,4.57
2022-11-27T15:15:30.219Z,4.03
2022-11-27T15:18:01.041Z,4.03
2022-11-27T15:20:44.732Z,4.22
2022-11-27T15:23:17.950Z,4.40
2022-11-27T15:25:48.113Z,4.15
2022-11-27T15:28:23.503Z,4.75
2022-11-27T15:30:50.573Z,5.00
2022-11-27T15:33:28.443Z,4.80
2022-11-27T15:36:16.235Z,5.00
2022-11-27T15:38:43.421Z,5.20
2022-11-27T15:41:25.962Z,5.53
2022-11-27T15:43:52.747Z,5.82
2022-11-27T15:46:25.032Z,6.38
2022-11-27T15:48:51.995Z,6.82
2022-11-27T15:51:18.474Z,6.07
2022-11-27T15:53:45.101Z,6.00
2022-11-27T15:56:11.453Z,6.32
2022-11-27T15:58:37.856Z,6.10
2022-11-27T16:01:05.845Z,6.47
2022-11-27T16:03:32.220Z,6.45
2022-11-27T16:06:05.923Z,6.63
2022-11-27T16:08:32.379Z,7.20
2022-11-27T16:11:03.605Z,6.65
2022-11-27T16:13:30.059Z,6.75
2022-11-27T16:16:04.590Z,6.97
2022-11-27T16:18:32.194Z,7.43
2022-11-27T16:21:03.807Z,9.95
2022-11-27T16:23:30.340Z,15.63
2022-11-27T16:25:56.800Z,6.97
2022-11-27T16:28:23.146Z,6.97
2022-11-27T16:30:51.980Z,7.13
2022-11-27T16:33:19.836Z,7.10
2022-11-27T16:35:46.187Z,8.45
2022-11-27T16:38:12.861Z,7.72
2022-11-27T16:40:39.468Z,7.57
2022-11-27T16:43:05.821Z,7.20
2022-11-27T16:45:35.841Z,7.45
2022-11-27T16:48:02.806Z,9.38
2022-11-27T16:50:30.657Z,8.95
2022-11-27T16:52:57.612Z,7.82
2022-11-27T16:55:25.142Z,7.72
2022-11-27T16:57:51.844Z,8.27
2022-11-27T17:00:18.844Z,8.65
2022-11-27T17:02:45.250Z,7.78
2022-11-27T17:05:11.643Z,8.75
2022-11-27T17:07:38.073Z,8.57
2022-11-27T17:10:04.950Z,8.25
2022-11-27T17:12:32.629Z,8.02
2022-11-27T17:14:58.974Z,8.68
2022-11-27T17:17:25.452Z,10.57
2022-11-27T17:19:55.035Z,8.25
2022-11-27T17:22:21.378Z,8.88
2022-11-27T17:24:47.749Z,8.25
2022-11-27T17:27:14.697Z,8.75
2022-11-27T17:29:41.208Z,12.15
2022-11-27T17:32:09.861Z,11.82
2022-11-27T17:34:36.345Z,9.68
2022-11-27T17:37:02.784Z,8.98
2022-11-27T17:39:29.161Z,9.35
2022-11-27T17:41:55.531Z,9.05
2022-11-27T17:44:21.988Z,9.02
2022-11-27T17:46:50.522Z,8.90
2022-11-27T17:49:17.090Z,9.20
2022-11-27T17:51:43.770Z,9.80
2022-11-27T17:54:11.254Z,9.23
2022-11-27T17:56:37.628Z,8.85
2022-11-27T17:59:04.137Z,9.85
2022-11-27T18:01:30.871Z,9.77
2022-11-27T18:04:00.422Z,9.70
2022-11-27T18:06:27.193Z,9.45
2022-11-27T18:08:55.702Z,9.50
2022-11-27T18:11:24.508Z,9.25
2022-11-27T18:13:51.453Z,9.52
2022-11-27T18:16:25.148Z,9.32
2022-11-27T18:18:51.642Z,8.75
2022-11-27T18:21:19.783Z,8.48
2022-11-27T18:24:21.298Z,10.18
2022-11-27T18:27:06.556Z,9.80
2022-11-27T18:29:23.192Z,9.50
2022-11-27T18:31:51.026Z,8.85
2022-11-27T18:34:17.587Z,9.32
2022-11-27T18:36:45.054Z,9.50
2022-11-27T18:39:11.935Z,9.63
2022-11-27T18:41:38.375Z,9.60
2022-11-27T18:44:04.997Z,12.57
2022-11-27T18:46:31.483Z,9.93
2022-11-27T18:48:58.683Z,9.30
2022-11-27T18:51:26.424Z,9.50
2022-11-27T18:53:53.389Z,10.00
2022-11-27T18:56:22.707Z,9.93
2022-11-27T18:58:50.169Z,10.05
2022-11-27T19:01:25.690Z,10.90
2022-11-27T19:03:52.542Z,10.27
2022-11-27T19:06:21.421Z,9.80
2022-11-27T19:08:48.055Z,17.33
2022-11-27T19:11:17.309Z,14.50
2022-11-27T19:13:45.336Z,10.52
2022-11-27T19:16:17.715Z,11.35
2022-11-27T19:18:44.466Z,11.38
2022-11-27T19:21:12.911Z,13.70
2022-11-27T19:23:39.537Z,12.43
2022-11-27T19:26:23.699Z,12.80
2022-11-27T19:28:51.889Z,12.15
2022-11-27T19:31:18.608Z,11.82
2022-11-27T19:33:45.358Z,12.52
2022-11-27T19:36:13.666Z,11.35
2022-11-27T19:38:42.291Z,12.05
2022-11-27T19:41:17.598Z,13.52
2022-11-27T19:43:45.314Z,13.77
2022-11-27T19:46:16.657Z,14.40
2022-11-27T19:48:43.965Z,13.23
2022-11-27T19:51:10.743Z,13.77
2022-11-27T19:53:37.806Z,14.23
2022-11-27T19:56:04.886Z,13.63
2022-11-27T19:58:32.303Z,14.95
2022-11-27T20:01:09.903Z,14.52
2022-11-27T20:03:36.825Z,14.23
2022-11-27T20:06:09.982Z,14.57
2022-11-27T20:08:37.562Z,13.80
2022-11-27T20:11:07.385Z,14.23
2022-11-27T20:16:00.395Z,14.40
2022-11-27T20:18:27.963Z,14.13
2022-11-27T20:21:05.276Z,14.32
2022-11-27T20:23:31.769Z,15.05
2022-11-27T20:25:58.663Z,14.90
2022-11-27T20:28:25.046Z,13.82
2022-11-27T20:30:59.309Z,28.23
2022-11-27T20:33:27.453Z,26.83
2022-11-27T20:35:55.081Z,15.43
2022-11-27T20:38:22.873Z,16.15
2022-11-27T20:40:50.567Z,14.02
2022-11-27T20:43:16.957Z,14.38
2022-11-27T20:45:43.506Z,14.07
2022-11-27T20:48:10.627Z,13.15
2022-11-27T20:50:38.981Z,13.48
2022-11-27T20:53:06.275Z,12.98
2022-11-27T20:55:33.877Z,13.07
2022-11-27T20:58:00.267Z,12.63
2022-11-27T21:00:26.954Z,13.82
2022-11-27T21:02:53.367Z,13.50
2022-11-27T21:05:20.090Z,13.68
2022-11-27T21:07:46.649Z,13.52
2022-11-27T21:10:16.207Z,14.20
2022-11-27T21:12:43.216Z,13.60
2022-11-27T21:15:10.298Z,13.43
2022-11-27T21:17:36.874Z,14.70
2022-11-27T21:20:04.310Z,16.83
2022-11-27T21:22:31.477Z,15.13
2022-11-27T21:24:57.926Z,13.90
2022-11-27T21:27:24.385Z,14.77
2022-11-27T21:29:50.906Z,13.88
2022-11-27T21:32:22.695Z,13.68
2022-11-27T21:34:49.183Z,13.73
2022-11-27T21:37:15.592Z,13.43
2022-11-27T21:39:44.091Z,13.93
2022-11-27T21:42:10.496Z,13.98
2022-11-27T21:44:41.258Z,14.35
2022-11-27T21:47:11.927Z,14.73
2022-11-27T21:49:41.567Z,14.65
2022-11-27T21:52:08.192Z,14.68
2022-11-27T21:54:34.851Z,14.13
2022-11-27T21:57:01.307Z,13.25
2022-11-27T21:59:27.838Z,13.18
2022-11-27T22:01:56.999Z,13.73
2022-11-27T22:04:24.809Z,13.50
2022-11-27T22:06:51.352Z,13.80
2022-11-27T22:09:18.327Z,13.38
2022-11-27T22:11:46.425Z,13.30
2022-11-27T22:14:14.831Z,14.13
2022-11-27T22:16:45.272Z,13.38
2022-11-27T22:19:12.748Z,12.82
2022-11-27T22:21:39.254Z,12.57
2022-11-27T22:24:06.063Z,12.25
2022-11-27T22:26:32.462Z,12.45
2022-11-27T22:28:59.209Z,13.70
2022-11-27T22:31:29.764Z,12.80
2022-11-27T22:33:57.197Z,12.90
2022-11-27T22:36:32.460Z,12.32
2022-11-27T22:39:00.964Z,11.75
2022-11-27T22:41:29.546Z,11.68
2022-11-27T22:43:56.297Z,12.15
2022-11-27T22:46:25.710Z,12.90
2022-11-27T22:48:54.705Z,12.15
2022-11-27T22:51:22.042Z,11.38
2022-11-27T22:53:48.545Z,14.15
2022-11-27T22:56:15.335Z,15.07
2022-11-27T22:58:42.419Z,13.85
2022-11-27T23:01:13.962Z,13.95
2022-11-27T23:03:40.450Z,14.45
2022-11-27T23:06:12.734Z,14.98
2022-11-27T23:08:40.913Z,12.00
2022-11-27T23:11:09.086Z,11.15
2022-11-27T23:13:35.795Z,16.00
2022-11-27T23:16:03.845Z,14.57
2022-11-27T23:18:30.342Z,14.20
2022-11-27T23:20:56.699Z,13.70
2022-11-27T23:23:24.029Z,11.52
2022-11-27T23:25:50.589Z,10.88
2022-11-27T23:28:17.006Z,10.98
2022-11-27T23:30:43.358Z,11.80
2022-11-27T23:33:09.756Z,12.27
2022-11-27T23:35:36.128Z,11.30
2022-11-27T23:38:03.419Z,13.30
2022-11-27T23:40:29.824Z,11.93
2022-11-27T23:42:56.201Z,11.15
2022-11-27T23:45:22.576Z,11.20
2022-11-27T23:47:50.365Z,11.77
2022-11-27T23:50:16.874Z,10.98
2022-11-27T23:52:43.315Z,11.40
2022-11-27T23:55:09.757Z,12.35
2022-11-27T23:57:36.134Z,11.65
